Time;durP1;ratioP1;P1;durP2;ratioP2;P2;SDS_P1;SDS_P2;PMS_P1;PMS_P2;Temp;Humidity;BMP_temperature;BMP_pressure;BME280_temperature;BME280_humidity;BME280_pressure;Samples;Min_cycle;Max_cycle;Signal;HPM_P1;HPM_P2
2021/06/28 00:00:43;;;;;;;39.13;35.03;;;17.90;90.70;;;;;;5006895;28;20112;-75
2021/06/28 00:03:10;;;;;;;43.63;38.10;;;17.90;90.70;;;;;;5009200;28;20049;-79
2021/06/28 00:05:36;;;;;;;40.95;36.40;;;17.90;90.70;;;;;;5004715;28;20037;-77
2021/06/28 00:08:02;;;;;;;41.65;37.35;;;17.90;90.70;;;;;;5009146;28;20038;-79
2021/06/28 00:10:30;;;;;;;40.95;36.63;;;17.90;90.70;;;;;;5007187;28;20030;-76
2021/06/28 00:12:58;;;;;;;41.97;37.40;;;17.90;90.70;;;;;;5005911;28;20049;-74
2021/06/28 00:15:31;;;;;;;41.78;36.72;;;17.90;90.70;;;;;;5007734;28;20124;-80
2021/06/28 00:17:57;;;;;;;39.70;35.50;;;18.00;90.60;;;;;;5006362;28;20054;-75
2021/06/28 00:20:23;;;;;;;40.80;36.67;;;17.90;90.50;;;;;;5005479;28;20034;-78
2021/06/28 00:22:49;;;;;;;41.35;37.05;;;17.80;90.40;;;;;;5016793;28;20088;-77
2021/06/28 00:25:18;;;;;;;43.42;38.80;;;17.90;90.40;;;;;;5023049;28;20064;-74
2021/06/28 00:27:45;;;;;;;41.90;37.33;;;17.80;90.40;;;;;;5009163;28;20037;-74
2021/06/28 00:30:14;;;;;;;43.17;38.63;;;17.70;90.30;;;;;;5007875;28;20029;-74
2021/06/28 00:32:41;;;;;;;43.50;38.90;;;17.70;90.40;;;;;;5010551;28;20045;-78
2021/06/28 00:35:07;;;;;;;41.88;37.60;;;17.70;90.50;;;;;;5004962;28;20048;-77
2021/06/28 00:37:34;;;;;;;39.97;36.05;;;17.70;90.60;;;;;;5009232;28;20060;-75
2021/06/28 00:40:01;;;;;;;41.50;37.03;;;17.70;90.60;;;;;;5010937;28;20116;-79
2021/06/28 00:42:26;;;;;;;41.30;36.85;;;17.70;90.70;;;;;;5004767;28;20066;-75
2021/06/28 00:44:53;;;;;;;40.50;36.40;;;17.70;90.70;;;;;;5007840;28;20100;-75
2021/06/28 00:47:20;;;;;;;41.83;37.60;;;17.60;90.60;;;;;;5015520;28;21670;-77
2021/06/28 00:49:46;;;;;;;43.20;38.83;;;17.60;90.60;;;;;;5009391;28;20049;-78
2021/06/28 00:52:11;;;;;;;43.10;38.72;;;17.70;90.70;;;;;;5011251;28;20034;-77
2021/06/28 00:54:38;;;;;;;45.92;41.03;;;17.70;90.70;;;;;;5009706;28;20085;-75
2021/06/28 00:57:04;;;;;;;44.28;39.58;;;17.60;90.80;;;;;;5005947;28;20044;-77
2021/06/28 00:59:32;;;;;;;48.13;43.00;;;17.60;90.80;;;;;;5006660;28;20038;-78
2021/06/28 01:01:59;;;;;;;47.25;42.13;;;17.60;90.80;;;;;;5007346;28;20052;-74
2021/06/28 01:04:26;;;;;;;45.70;40.88;;;17.60;90.80;;;;;;5006849;28;20939;-75
2021/06/28 01:06:51;;;;;;;42.25;37.80;;;17.60;90.80;;;;;;5005218;28;20552;-75
2021/06/28 01:09:17;;;;;;;41.72;37.35;;;17.60;90.80;;;;;;5007582;28;20030;-77
2021/06/28 01:11:43;;;;;;;43.53;39.00;;;17.60;90.80;;;;;;5009223;28;20112;-81
2021/06/28 01:14:09;;;;;;;43.28;38.60;;;17.70;90.70;;;;;;5006275;28;20073;-78
2021/06/28 01:16:36;;;;;;;43.80;38.97;;;17.70;90.70;;;;;;5007934;28;20163;-74
2021/06/28 01:19:03;;;;;;;48.50;43.30;;;17.70;90.70;;;;;;5008720;28;20033;-75
2021/06/28 01:21:29;;;;;;;41.30;36.90;;;17.70;90.60;;;;;;5004732;28;20050;-76
2021/06/28 01:23:56;;;;;;;43.38;38.85;;;17.70;90.50;;;;;;5007176;28;20526;-81
2021/06/28 01:26:22;;;;;;;45.75;41.00;;;17.80;90.60;;;;;;5004334;28;20104;-75
2021/06/28 01:28:47;;;;;;;45.08;40.25;;;17.70;90.60;;;;;;5007911;28;20346;-76
2021/06/28 01:31:13;;;;;;;46.00;41.30;;;17.70;90.70;;;;;;5003787;28;20037;-75
2021/06/28 01:33:40;;;;;;;43.08;38.60;;;17.70;90.60;;;;;;5005648;28;20056;-79
2021/06/28 01:36:06;;;;;;;43.22;38.83;;;17.70;90.60;;;;;;5016650;28;20598;-77
2021/06/28 01:38:33;;;;;;;44.17;39.65;;;17.70;90.60;;;;;;5007849;28;20428;-75
2021/06/28 01:40:59;;;;;;;41.78;37.50;;;17.70;90.60;;;;;;5004279;28;20042;-74
2021/06/28 01:43:25;;;;;;;46.03;41.10;;;17.70;90.60;;;;;;5006543;28;20045;-74
2021/06/28 01:45:52;;;;;;;41.85;37.55;;;17.70;90.60;;;;;;5009072;28;21682;-76
2021/06/28 01:48:18;;;;;;;46.78;41.72;;;17.70;90.60;;;;;;5010691;28;20030;-78
2021/06/28 01:50:44;;;;;;;46.47;41.42;;;17.70;90.60;;;;;;5002854;28;20032;-74
2021/06/28 01:53:10;;;;;;;47.28;42.30;;;17.60;90.70;;;;;;5008091;28;20112;-76
2021/06/28 01:55:37;;;;;;;50.67;45.30;;;17.60;90.70;;;;;;5006222;28;20030;-77
2021/06/28 01:58:06;;;;;;;49.63;44.38;;;17.60;90.80;;;;;;5009870;28;20040;-75
2021/06/28 02:00:40;;;;;;;47.08;42.20;;;17.50;90.90;;;;;;5007642;28;20022;-74
2021/06/28 02:03:14;;;;;;;52.70;47.13;;;17.50;91.10;;;;;;5005995;28;20042;-74
2021/06/28 02:05:46;;;;;;;53.53;47.78;;;17.50;91.10;;;;;;5011703;28;20030;-76
2021/06/28 02:08:13;;;;;;;53.47;47.67;;;17.40;91.20;;;;;;5006789;28;20044;-77
2021/06/28 02:10:42;;;;;;;45.60;40.65;;;17.40;91.30;;;;;;5004452;28;20038;-76
2021/06/28 02:13:08;;;;;;;56.67;49.63;;;17.40;91.30;;;;;;5022946;28;20419;-74
2021/06/28 02:15:34;;;;;;;57.08;50.85;;;17.40;91.40;;;;;;5005045;28;20456;-75
2021/06/28 02:18:01;;;;;;;59.08;51.45;;;17.30;91.50;;;;;;5002803;28;20038;-76
2021/06/28 02:20:28;;;;;;;56.08;50.03;;;17.30;91.70;;;;;;5012031;28;20037;-77
2021/06/28 02:22:58;;;;;;;57.42;50.65;;;17.30;91.80;;;;;;5010280;28;20509;-75
2021/06/28 02:25:24;;;;;;;55.28;48.20;;;17.30;91.80;;;;;;5007695;28;20036;-78
2021/06/28 02:27:50;;;;;;;51.58;46.15;;;17.30;91.90;;;;;;5006856;28;20025;-77
2021/06/28 02:30:17;;;;;;;54.35;47.90;;;17.30;91.90;;;;;;5008375;28;20060;-73
2021/06/28 02:32:45;;;;;;;61.35;54.10;;;17.30;91.90;;;;;;5011687;28;20113;-76
2021/06/28 02:35:12;;;;;;;59.40;51.97;;;17.20;91.90;;;;;;5006434;28;20040;-81
2021/06/28 02:37:40;;;;;;;67.28;55.88;;;17.10;92.10;;;;;;5010099;28;20025;-75
2021/06/28 02:40:09;;;;;;;62.45;53.95;;;17.10;92.20;;;;;;5003864;28;21130;-74
2021/06/28 02:42:35;;;;;;;63.10;53.55;;;17.10;92.40;;;;;;5004284;28;20091;-78
2021/06/28 02:45:01;;;;;;;65.82;53.97;;;17.10;92.40;;;;;;5009230;28;20432;-78
2021/06/28 02:47:27;;;;;;;70.63;55.63;;;17.10;92.40;;;;;;5005514;28;20121;-74
2021/06/28 02:49:52;;;;;;;71.60;54.88;;;17.10;92.40;;;;;;5003655;28;20129;-75
2021/06/28 02:52:18;;;;;;;64.15;50.60;;;17.10;92.50;;;;;;5002398;28;20049;-81
2021/06/28 02:54:43;;;;;;;69.93;51.10;;;17.20;92.40;;;;;;5007336;28;20545;-75
2021/06/28 02:57:09;;;;;;;72.25;52.75;;;17.20;92.50;;;;;;5006461;28;20540;-76
2021/06/28 02:59:35;;;;;;;85.47;52.40;;;17.20;92.40;;;;;;5011152;28;20030;-75
2021/06/28 03:02:00;;;;;;;85.55;55.53;;;17.20;92.40;;;;;;5008105;28;20091;-76
2021/06/28 03:04:26;;;;;;;85.35;52.25;;;17.20;92.40;;;;;;5011680;28;20041;-74
2021/06/28 03:06:52;;;;;;;55.58;46.35;;;17.30;92.50;;;;;;5009283;28;20511;-79
2021/06/28 03:09:17;;;;;;;54.75;46.50;;;17.30;92.50;;;;;;5003867;28;20030;-76
2021/06/28 03:11:43;;;;;;;50.58;45.08;;;17.20;92.30;;;;;;5007202;28;20496;-75
2021/06/28 03:14:09;;;;;;;49.30;43.92;;;17.20;92.30;;;;;;5003043;28;20022;-78
2021/06/28 03:16:34;;;;;;;48.40;43.15;;;17.20;92.40;;;;;;5005942;28;20058;-79
2021/06/28 03:19:00;;;;;;;49.03;43.45;;;17.20;92.30;;;;;;4999428;28;20034;-76
2021/06/28 03:21:26;;;;;;;49.88;44.58;;;17.20;92.30;;;;;;5006323;28;20029;-74
2021/06/28 03:23:51;;;;;;;53.00;47.45;;;17.20;92.10;;;;;;5001139;28;20551;-80
2021/06/28 03:26:17;;;;;;;48.25;43.08;;;17.20;92.10;;;;;;4999375;28;20030;-77
2021/06/28 03:28:43;;;;;;;49.28;43.95;;;17.20;92.10;;;;;;5004167;28;20045;-78
2021/06/28 03:31:10;;;;;;;47.58;42.45;;;17.20;92.20;;;;;;5005278;28;20064;-73
2021/06/28 03:33:36;;;;;;;46.38;41.42;;;17.20;92.30;;;;;;5002619;28;20037;-75
2021/06/28 03:36:03;;;;;;;44.45;39.80;;;17.20;92.30;;;;;;5016072;28;20137;-75
2021/06/28 03:38:30;;;;;;;48.50;43.30;;;17.20;92.30;;;;;;4999093;28;20042;-76
2021/06/28 03:40:56;;;;;;;43.75;39.22;;;17.20;92.30;;;;;;5002171;28;20625;-80
2021/06/28 03:43:22;;;;;;;43.47;38.83;;;17.20;92.30;;;;;;5004253;28;20050;-76
2021/06/28 03:45:47;;;;;;;43.72;39.17;;;17.30;92.30;;;;;;5001785;28;20038;-76
2021/06/28 03:48:13;;;;;;;39.83;35.80;;;17.30;92.30;;;;;;5001716;28;20509;-79
2021/06/28 03:50:41;;;;;;;41.45;37.03;;;17.30;92.30;;;;;;5012375;28;20389;-79
2021/06/28 03:53:08;;;;;;;41.88;37.53;;;17.30;92.30;;;;;;5002530;28;20406;-80
2021/06/28 03:55:34;;;;;;;44.65;39.92;;;17.30;92.30;;;;;;5002896;28;20061;-80
2021/06/28 03:57:59;;;;;;;44.33;39.60;;;17.40;92.30;;;;;;5001142;28;20037;-80
2021/06/28 04:00:26;;;;;;;43.80;39.40;;;17.50;92.20;;;;;;5002038;28;20348;-74
2021/06/28 04:02:54;;;;;;;40.13;36.05;;;17.50;92.10;;;;;;5004370;28;20444;-81
2021/06/28 04:05:22;;;;;;;43.25;38.75;;;17.50;92.00;;;;;;5007283;28;20038;-75
2021/06/28 04:07:49;;;;;;;43.72;39.30;;;17.60;91.90;;;;;;5009926;28;20037;-77
2021/06/28 04:10:16;;;;;;;40.22;36.20;;;17.60;91.60;;;;;;5004813;28;20037;-74
2021/06/28 04:12:43;;;;;;;41.85;37.72;;;17.60;91.60;;;;;;5008397;28;20393;-75
2021/06/28 04:15:11;;;;;;;38.75;34.95;;;17.60;91.50;;;;;;5008455;28;20096;-75
2021/06/28 04:17:41;;;;;;;38.05;34.35;;;17.60;91.50;;;;;;5008119;28;20062;-77
2021/06/28 04:20:10;;;;;;;39.15;35.25;;;17.70;91.50;;;;;;5006629;28;20050;-74
2021/06/28 04:22:36;;;;;;;37.45;33.67;;;17.70;91.40;;;;;;5008281;28;20041;-75
2021/06/28 04:25:06;;;;;;;35.88;32.35;;;17.70;91.30;;;;;;5006802;28;20049;-78
2021/06/28 04:27:32;;;;;;;38.25;34.38;;;17.70;91.20;;;;;;5011905;28;20080;-77
2021/06/28 04:29:58;;;;;;;37.58;33.70;;;17.70;91.10;;;;;;5008646;28;20037;-79
2021/06/28 04:32:24;;;;;;;34.50;31.10;;;17.70;91.10;;;;;;5010086;28;20049;-78
2021/06/28 04:34:50;;;;;;;33.28;29.90;;;17.70;91.00;;;;;;5006850;28;20034;-74
2021/06/28 04:37:15;;;;;;;38.25;34.35;;;17.80;91.00;;;;;;5009838;28;20049;-80
2021/06/28 04:39:41;;;;;;;35.70;32.20;;;17.80;91.00;;;;;;5007400;28;20101;-76
2021/06/28 04:42:08;;;;;;;39.38;35.42;;;17.80;90.90;;;;;;5008172;28;20042;-77
2021/06/28 04:44:33;;;;;;;36.13;32.42;;;17.80;90.70;;;;;;5007972;28;20029;-74
2021/06/28 04:47:00;;;;;;;38.92;34.90;;;17.80;90.80;;;;;;5008127;28;20039;-80
2021/06/28 04:49:26;;;;;;;39.58;35.58;;;17.80;90.70;;;;;;5006586;28;20072;-75
2021/06/28 04:51:51;;;;;;;41.10;36.97;;;17.80;90.70;;;;;;5007704;28;20477;-77
2021/06/28 04:54:17;;;;;;;41.53;37.35;;;17.70;90.80;;;;;;5006543;28;20038;-77
2021/06/28 04:56:43;;;;;;;37.97;34.17;;;17.70;90.90;;;;;;5009171;28;20404;-79
2021/06/28 04:59:08;;;;;;;38.85;34.92;;;17.80;91.00;;;;;;5006502;28;20058;-74
2021/06/28 05:01:34;;;;;;;39.95;35.72;;;17.80;91.10;;;;;;5006353;28;20231;-79
2021/06/28 05:04:00;;;;;;;35.63;32.13;;;17.80;91.10;;;;;;5009504;28;20030;-76
2021/06/28 05:06:26;;;;;;;38.80;34.78;;;17.80;91.00;;;;;;5006066;28;20046;-75
2021/06/28 05:08:51;;;;;;;37.65;33.85;;;17.90;91.00;;;;;;5005137;28;20100;-77
2021/06/28 05:11:17;;;;;;;37.80;34.08;;;18.00;90.90;;;;;;5012697;28;20045;-76
2021/06/28 05:13:43;;;;;;;34.85;31.38;;;18.00;90.90;;;;;;5004511;28;20035;-74
2021/06/28 05:16:09;;;;;;;34.95;31.45;;;18.00;90.90;;;;;;5006380;28;20040;-74
2021/06/28 05:18:34;;;;;;;35.88;32.28;;;18.00;90.90;;;;;;5004475;28;20050;-74
2021/06/28 05:21:00;;;;;;;34.38;30.98;;;18.10;90.70;;;;;;5005776;28;20037;-79
2021/06/28 05:23:26;;;;;;;35.58;31.98;;;18.10;90.90;;;;;;5006329;28;20042;-75
2021/06/28 05:25:51;;;;;;;38.00;34.05;;;18.10;90.80;;;;;;5002402;28;20030;-75
2021/06/28 05:28:17;;;;;;;37.95;34.17;;;18.20;90.70;;;;;;5006572;28;20401;-73
2021/06/28 05:30:43;;;;;;;35.45;31.90;;;18.20;90.60;;;;;;5005002;28;20124;-74
2021/06/28 05:33:08;;;;;;;31.65;28.25;;;18.20;90.40;;;;;;5008743;28;20081;-72
2021/06/28 05:35:34;;;;;;;34.55;31.05;;;18.30;90.50;;;;;;5006998;28;20512;-73
2021/06/28 05:38:00;;;;;;;35.10;31.58;;;18.30;90.40;;;;;;5003018;28;20104;-73
2021/06/28 05:40:26;;;;;;;37.03;32.58;;;18.30;90.00;;;;;;5019996;28;20034;-72
2021/06/28 05:42:51;;;;;;;31.80;28.77;;;18.40;89.80;;;;;;5007988;28;20065;-72
2021/06/28 05:45:17;;;;;;;32.83;29.52;;;18.40;89.90;;;;;;5005629;28;20037;-73
2021/06/28 05:47:44;;;;;;;34.15;30.65;;;18.50;90.00;;;;;;5007433;28;20037;-76
2021/06/28 05:50:15;;;;;;;32.47;29.27;;;18.60;89.90;;;;;;5004961;28;20560;-77
2021/06/28 05:52:41;;;;;;;33.42;30.08;;;18.60;89.70;;;;;;5001271;28;21757;-73
2021/06/28 05:55:07;;;;;;;32.17;29.08;;;18.60;89.60;;;;;;5006144;28;20084;-75
2021/06/28 05:57:33;;;;;;;31.25;28.15;;;18.70;89.50;;;;;;5004097;28;20030;-72
2021/06/28 05:59:58;;;;;;;28.60;25.70;;;18.80;89.40;;;;;;5002632;28;20377;-72
2021/06/28 06:02:24;;;;;;;32.35;29.25;;;19.00;89.30;;;;;;5003263;28;20037;-74
2021/06/28 06:04:50;;;;;;;30.85;27.83;;;19.10;88.90;;;;;;5005555;28;20034;-74
2021/06/28 06:07:16;;;;;;;34.10;30.63;;;19.10;87.90;;;;;;5005783;28;20048;-73
2021/06/28 06:09:43;;;;;;;31.25;28.05;;;19.10;87.80;;;;;;5008767;28;20060;-73
2021/06/28 06:12:09;;;;;;;31.58;28.35;;;19.30;88.70;;;;;;5003068;28;20328;-74
2021/06/28 06:14:35;;;;;;;28.45;25.65;;;19.50;88.40;;;;;;5003138;28;20089;-74
2021/06/28 06:17:00;;;;;;;29.48;26.65;;;19.70;87.60;;;;;;5005389;28;20126;-75
2021/06/28 06:19:26;;;;;;;26.85;24.23;;;19.90;87.00;;;;;;5002700;28;20072;-76
2021/06/28 06:21:52;;;;;;;28.25;25.35;;;19.90;86.00;;;;;;5001721;28;20482;-75
2021/06/28 06:24:19;;;;;;;26.48;23.83;;;20.00;85.90;;;;;;5003161;28;20034;-78
2021/06/28 06:26:45;;;;;;;27.00;24.30;;;20.10;85.90;;;;;;5001677;28;20048;-77
2021/06/28 06:29:10;;;;;;;29.05;26.23;;;20.30;85.50;;;;;;5003913;28;20045;-78
2021/06/28 06:31:36;;;;;;;30.80;24.75;;;20.30;84.80;;;;;;5004665;28;20501;-80
2021/06/28 06:34:02;;;;;;;28.88;25.95;;;20.20;84.70;;;;;;5001128;28;20176;-76
2021/06/28 06:36:28;;;;;;;28.92;25.45;;;20.40;85.00;;;;;;5001740;28;20630;-77
2021/06/28 06:38:54;;;;;;;28.20;25.33;;;20.50;84.40;;;;;;5004933;28;20042;-74
2021/06/28 06:41:20;;;;;;;26.73;24.17;;;20.60;84.00;;;;;;5003567;28;20038;-74
2021/06/28 06:43:45;;;;;;;27.45;24.63;;;20.60;84.20;;;;;;5001453;28;20050;-78
2021/06/28 06:46:11;;;;;;;27.45;24.80;;;20.60;83.90;;;;;;5003210;28;20038;-81
2021/06/28 06:48:37;;;;;;;26.33;23.63;;;20.70;83.70;;;;;;5002085;28;21178;-75
2021/06/28 06:51:03;;;;;;;26.02;23.33;;;20.60;83.60;;;;;;5004521;28;20071;-73
2021/06/28 06:53:28;;;;;;;25.00;22.33;;;20.70;84.10;;;;;;5002654;28;20152;-73
2021/06/28 06:55:54;;;;;;;25.65;22.92;;;20.80;84.00;;;;;;5000132;28;21457;-73
2021/06/28 06:58:20;;;;;;;24.95;22.50;;;20.80;83.10;;;;;;5008284;28;20057;-75
2021/06/28 07:00:46;;;;;;;23.55;21.33;;;20.80;83.50;;;;;;5003771;28;20034;-77
2021/06/28 07:03:11;;;;;;;23.55;21.25;;;20.90;83.60;;;;;;5011448;28;20477;-78
2021/06/28 07:05:37;;;;;;;25.20;22.70;;;20.80;83.60;;;;;;5005167;28;20037;-75
2021/06/28 07:08:04;;;;;;;27.48;24.70;;;20.70;83.90;;;;;;5002852;28;20492;-77
2021/06/28 07:10:30;;;;;;;25.83;23.05;;;20.70;84.40;;;;;;5003617;28;20092;-76
2021/06/28 07:12:56;;;;;;;23.83;21.50;;;20.80;84.50;;;;;;5005373;28;20058;-78
2021/06/28 07:15:22;;;;;;;24.40;21.90;;;20.90;84.20;;;;;;5006607;28;20078;-75
2021/06/28 07:17:49;;;;;;;25.70;23.10;;;21.00;84.00;;;;;;4996819;28;20119;-76
2021/06/28 07:20:18;;;;;;;22.60;20.33;;;20.90;83.70;;;;;;5009706;28;20036;-75
2021/06/28 07:22:44;;;;;;;23.23;20.77;;;21.00;84.00;;;;;;5000973;28;20503;-76
2021/06/28 07:25:12;;;;;;;23.77;21.48;;;21.20;83.50;;;;;;5004121;28;20132;-77
2021/06/28 07:27:38;;;;;;;21.33;19.13;;;21.30;82.80;;;;;;5006179;28;20069;-75
2021/06/28 07:30:07;;;;;;;21.60;19.23;;;21.30;82.60;;;;;;5002793;28;20078;-79
2021/06/28 07:32:32;;;;;;;21.70;19.20;;;21.30;82.30;;;;;;5002826;28;20042;-75
2021/06/28 07:34:58;;;;;;;20.30;18.10;;;21.30;82.40;;;;;;5007355;28;20026;-78
2021/06/28 07:37:24;;;;;;;19.88;17.80;;;21.30;82.30;;;;;;5004111;28;20042;-78
2021/06/28 07:39:49;;;;;;;19.17;17.17;;;21.30;82.20;;;;;;5008160;28;20029;-76
2021/06/28 07:42:15;;;;;;;19.35;16.00;;;21.30;82.10;;;;;;5007890;28;20469;-81
2021/06/28 07:44:41;;;;;;;21.17;18.95;;;21.30;82.40;;;;;;5011185;28;20025;-80
2021/06/28 07:47:07;;;;;;;20.30;18.17;;;21.30;82.10;;;;;;5004426;28;20065;-81
2021/06/28 07:49:32;;;;;;;20.65;18.45;;;21.30;82.10;;;;;;5004726;28;20125;-75
2021/06/28 07:51:59;;;;;;;20.63;17.55;;;21.20;82.30;;;;;;5004089;28;20073;-75
2021/06/28 07:54:25;;;;;;;21.25;18.08;;;21.20;82.50;;;;;;5009599;28;20624;-72
2021/06/28 07:56:51;;;;;;;20.50;17.92;;;21.20;82.80;;;;;;5006250;28;20128;-71
2021/06/28 07:59:17;;;;;;;23.17;20.70;;;21.30;82.60;;;;;;5006524;28;20048;-73
2021/06/28 08:01:43;;;;;;;20.50;18.38;;;21.20;82.00;;;;;;5007096;28;20438;-73
2021/06/28 08:04:08;;;;;;;22.95;20.42;;;21.20;82.40;;;;;;5009203;28;20045;-74
2021/06/28 08:06:35;;;;;;;21.38;18.80;;;21.10;82.80;;;;;;5007410;28;20629;-73
2021/06/28 08:09:01;;;;;;;20.42;18.33;;;21.10;82.90;;;;;;5004746;28;20100;-73
2021/06/28 08:11:27;;;;;;;22.15;18.67;;;21.10;83.30;;;;;;5007609;28;21259;-71
2021/06/28 08:13:54;;;;;;;21.27;18.83;;;21.10;83.40;;;;;;5009211;28;20073;-70
2021/06/28 08:16:22;;;;;;;22.23;19.00;;;21.10;83.20;;;;;;5007324;28;20026;-71
2021/06/28 08:18:49;;;;;;;21.60;19.33;;;21.10;83.50;;;;;;5005981;28;20038;-72
2021/06/28 08:21:15;;;;;;;22.80;20.27;;;21.10;83.50;;;;;;5010596;28;20035;-72
2021/06/28 08:23:42;;;;;;;21.38;19.23;;;21.10;83.70;;;;;;5008706;28;20108;-71
2021/06/28 08:26:08;;;;;;;20.88;18.65;;;21.10;83.80;;;;;;5002778;28;20541;-71
2021/06/28 08:28:33;;;;;;;24.52;22.02;;;21.20;83.80;;;;;;5006218;28;20112;-72
2021/06/28 08:30:59;;;;;;;21.92;19.73;;;21.30;83.20;;;;;;5005672;28;20041;-73
2021/06/28 08:33:25;;;;;;;24.85;19.98;;;21.40;83.40;;;;;;5008005;28;21672;-70
2021/06/28 08:35:51;;;;;;;21.73;19.25;;;21.40;83.10;;;;;;5009773;28;20037;-72
2021/06/28 08:38:17;;;;;;;22.42;18.55;;;21.50;82.90;;;;;;5011693;28;20138;-72
2021/06/28 08:40:43;;;;;;;20.40;17.77;;;21.60;82.20;;;;;;5014791;28;20033;-73
2021/06/28 08:43:09;;;;;;;18.75;16.15;;;21.60;81.90;;;;;;5006241;28;20207;-71
2021/06/28 08:45:37;;;;;;;19.85;17.83;;;21.60;81.50;;;;;;5013943;28;20040;-71
2021/06/28 08:48:04;;;;;;;19.45;17.35;;;21.70;81.30;;;;;;5006285;28;20089;-73
2021/06/28 08:50:30;;;;;;;20.42;17.05;;;21.70;81.40;;;;;;5006740;28;20501;-72
2021/06/28 08:52:57;;;;;;;19.08;16.00;;;21.60;81.40;;;;;;5017201;28;20381;-72
2021/06/28 08:55:22;;;;;;;20.00;17.15;;;21.70;81.90;;;;;;5010931;28;20033;-72
2021/06/28 08:57:48;;;;;;;19.55;17.02;;;21.70;81.60;;;;;;5006507;28;20110;-72
2021/06/28 09:00:16;;;;;;;17.42;15.02;;;21.60;81.80;;;;;;5005449;28;20046;-72
2021/06/28 09:02:52;;;;;;;18.50;16.40;;;21.60;81.80;;;;;;5003042;28;20048;-74
2021/06/28 09:05:17;;;;;;;17.92;16.00;;;21.60;82.10;;;;;;5004311;28;20032;-72
2021/06/28 09:07:43;;;;;;;16.98;14.15;;;21.70;82.10;;;;;;5006503;28;20029;-74
2021/06/28 09:10:42;;;;;;;16.02;13.63;;;21.80;81.80;;;;;;5005778;28;20066;-72
2021/06/28 09:13:10;;;;;;;15.88;12.05;;;22.10;81.10;;;;;;5007481;28;20040;-73
2021/06/28 09:15:43;;;;;;;13.07;11.10;;;22.20;79.90;;;;;;5010857;28;20033;-72
2021/06/28 09:18:25;;;;;;;14.65;11.40;;;22.50;78.10;;;;;;5006473;28;20092;-73
2021/06/28 09:21:13;;;;;;;17.13;10.65;;;22.60;77.10;;;;;;5007271;28;20030;-72
2021/06/28 09:23:40;;;;;;;15.57;10.77;;;22.60;76.80;;;;;;5011782;28;20488;-73
2021/06/28 09:26:14;;;;;;;14.40;11.43;;;22.60;76.90;;;;;;5006051;28;21236;-72
2021/06/28 09:28:43;;;;;;;;;;;22.50;77.30;;;;;;5007074;28;20037;-73
2021/06/28 09:31:28;;;;;;;14.07;11.82;;;22.40;78.00;;;;;;5003464;28;19963;-75
2021/06/28 09:34:03;;;;;;;17.73;13.65;;;22.40;77.80;;;;;;5006508;28;20037;-73
2021/06/28 09:36:29;;;;;;;20.20;13.88;;;22.30;78.30;;;;;;5006123;28;20056;-73
2021/06/28 09:38:54;;;;;;;16.67;14.07;;;22.20;78.30;;;;;;5004908;28;20042;-74
2021/06/28 09:41:31;;;;;;;15.35;13.15;;;22.30;79.10;;;;;;5003007;28;20466;-73
2021/06/28 09:44:05;;;;;;;15.25;13.05;;;22.40;79.30;;;;;;5003327;28;20480;-72
2021/06/28 09:46:31;;;;;;;14.75;12.18;;;22.40;78.50;;;;;;5006227;28;20034;-73
2021/06/28 09:48:57;;;;;;;17.50;11.90;;;22.50;78.30;;;;;;5004876;28;20030;-73
2021/06/28 09:51:29;;;;;;;16.05;12.70;;;22.60;77.80;;;;;;5001326;28;20078;-74
2021/06/28 09:54:14;;;;;;;14.23;12.15;;;22.60;77.60;;;;;;5007658;28;20045;-72
2021/06/28 09:56:51;;;;;;;14.85;11.82;;;22.60;77.40;;;;;;5006586;28;20038;-74
2021/06/28 09:59:20;;;;;;;14.25;10.73;;;22.50;78.20;;;;;;5004461;28;21006;-72
2021/06/28 10:01:48;;;;;;;12.88;10.73;;;22.60;78.00;;;;;;5003682;28;20034;-72
2021/06/28 10:05:24;;;;;;;12.85;9.13;;;22.50;77.50;;;;;;5008223;28;20468;-72
2021/06/28 10:07:41;;;;;;;10.85;8.85;;;22.60;76.70;;;;;;5002010;28;20100;-73
2021/06/28 10:10:25;;;;;;;13.07;10.55;;;23.00;75.80;;;;;;5004944;28;20492;-73
2021/06/28 10:13:00;;;;;;;14.35;10.30;;;23.50;74.80;;;;;;5005482;28;20124;-75
2021/06/28 10:15:28;;;;;;;13.38;10.48;;;23.90;73.40;;;;;;5003448;28;20064;-74
2021/06/28 10:17:54;;;;;;;15.55;11.05;;;24.20;72.60;;;;;;5004618;28;20037;-72
2021/06/28 10:20:26;;;;;;;14.57;11.23;;;24.50;71.70;;;;;;5004819;28;20061;-77
2021/06/28 10:22:53;;;;;;;13.35;11.68;;;24.50;70.90;;;;;;5001529;28;20100;-71
2021/06/28 10:25:21;;;;;;;14.70;10.93;;;24.50;70.40;;;;;;5003501;28;20057;-73
2021/06/28 10:27:47;;;;;;;13.77;10.18;;;24.60;70.50;;;;;;4996866;28;20052;-75
2021/06/28 10:30:15;;;;;;;13.00;9.73;;;24.40;71.00;;;;;;5013482;28;20029;-74
2021/06/28 10:32:45;;;;;;;12.38;9.63;;;24.50;71.90;;;;;;5008585;28;20029;-72
2021/06/28 10:35:21;;;;;;;11.20;9.63;;;24.50;71.10;;;;;;5017329;28;20040;-74
2021/06/28 10:37:48;;;;;;;13.63;9.25;;;24.70;70.60;;;;;;5009677;28;20053;-74
2021/06/28 10:40:20;;;;;;;13.25;9.93;;;24.70;70.00;;;;;;5015161;28;21675;-73
2021/06/28 10:42:56;;;;;;;12.13;9.63;;;24.60;70.70;;;;;;5016635;28;20050;-72
2021/06/28 10:45:43;;;;;;;13.35;10.52;;;24.50;70.80;;;;;;5015698;28;20036;-73
2021/06/28 10:48:11;;;;;;;13.95;10.85;;;24.50;70.90;;;;;;5012303;28;20030;-75
2021/06/28 10:50:50;;;;;;;12.30;10.00;;;24.50;70.80;;;;;;5018842;28;20116;-73
2021/06/28 10:53:18;;;;;;;15.02;10.65;;;24.50;71.50;;;;;;5011832;28;20050;-74
2021/06/28 10:55:44;;;;;;;13.60;11.02;;;24.40;71.50;;;;;;5027905;28;20041;-73
2021/06/28 10:58:31;;;;;;;14.27;11.30;;;24.00;73.10;;;;;;5013502;28;20061;-73
2021/06/28 11:00:59;;;;;;;15.20;11.30;;;23.60;73.60;;;;;;5011257;28;20034;-76
2021/06/28 11:03:30;;;;;;;16.02;11.75;;;23.40;74.40;;;;;;5014410;28;20785;-72
2021/06/28 11:06:21;;;;;;;12.77;10.68;;;23.40;74.40;;;;;;5008698;28;20038;-73
2021/06/28 11:08:56;;;;;;;15.35;10.95;;;23.50;75.10;;;;;;5022820;28;20057;-72
2021/06/28 11:11:44;;;;;;;16.17;11.95;;;23.60;75.00;;;;;;5008473;28;20365;-74
2021/06/28 11:14:30;;;;;;;14.75;11.02;;;23.80;74.80;;;;;;5008716;28;20432;-73
2021/06/28 11:17:11;;;;;;;13.45;10.30;;;24.10;74.20;;;;;;5021357;28;20400;-72
2021/06/28 11:19:45;;;;;;;17.50;10.77;;;24.30;72.50;;;;;;5018339;28;20091;-72
2021/06/28 11:22:30;;;;;;;16.92;11.30;;;24.30;72.10;;;;;;5015906;28;20037;-73
2021/06/28 11:25:23;;;;;;;15.75;12.32;;;24.30;71.60;;;;;;5018461;28;20041;-73
2021/06/28 11:27:58;;;;;;;14.85;11.57;;;24.10;72.30;;;;;;5011910;28;20239;-72
2021/06/28 11:30:26;;;;;;;18.13;11.57;;;24.00;73.20;;;;;;5018249;28;20042;-74
2021/06/28 11:33:04;;;;;;;19.30;13.45;;;23.90;73.80;;;;;;5016397;28;20528;-72
2021/06/28 11:35:37;;;;;;;17.25;12.23;;;23.80;74.20;;;;;;5016818;28;20033;-72
2021/06/28 11:38:19;;;;;;;18.07;12.17;;;23.80;74.50;;;;;;5021330;28;20039;-75
2021/06/28 11:40:51;;;;;;;17.60;12.00;;;23.70;74.20;;;;;;5017865;28;20053;-73
2021/06/28 11:43:39;;;;;;;13.13;9.65;;;23.50;75.30;;;;;;5020728;28;20034;-73
2021/06/28 11:46:17;;;;;;;11.30;8.60;;;23.30;76.00;;;;;;5013677;28;20610;-73
2021/06/28 11:48:53;;;;;;;14.20;8.98;;;23.10;76.00;;;;;;5010228;28;20053;-73
2021/06/28 11:51:30;;;;;;;12.95;8.23;;;23.20;75.60;;;;;;5009082;28;20092;-72
2021/06/28 11:54:06;;;;;;;12.27;8.00;;;23.20;75.60;;;;;;5007021;28;20088;-74
2021/06/28 11:56:38;;;;;;;12.48;7.90;;;23.30;75.70;;;;;;4992180;28;21164;-75
2021/06/28 11:59:12;;;;;;;13.75;8.75;;;23.30;75.70;;;;;;4987922;28;20130;-72
2021/06/28 12:01:45;;;;;;;15.82;9.00;;;23.30;75.90;;;;;;4995761;28;20047;-73
2021/06/28 12:04:21;;;;;;;11.75;9.10;;;23.30;76.10;;;;;;5009580;28;20037;-72
2021/06/28 12:06:49;;;;;;;13.48;9.55;;;23.20;76.50;;;;;;5007017;28;20489;-75
2021/06/28 12:09:18;;;;;;;10.60;8.63;;;23.10;76.90;;;;;;5009556;28;20060;-73
2021/06/28 12:12:14;;;;;;;13.93;9.40;;;23.10;76.70;;;;;;5013068;28;20041;-73
2021/06/28 12:14:51;;;;;;;11.32;9.32;;;23.00;76.80;;;;;;5009153;28;20046;-73
2021/06/28 12:17:24;;;;;;;14.25;9.40;;;23.10;76.50;;;;;;5010036;28;20030;-72
2021/06/28 12:19:52;;;;;;;11.98;9.40;;;23.30;75.70;;;;;;5012761;28;20045;-73
2021/06/28 12:22:24;;;;;;;11.77;8.77;;;23.30;75.70;;;;;;5006058;28;20041;-73
2021/06/28 12:24:59;;;;;;;14.43;9.80;;;23.40;75.10;;;;;;5024316;28;20043;-73
2021/06/28 12:27:32;;;;;;;11.98;10.70;;;23.70;74.40;;;;;;5006222;28;20398;-76
2021/06/28 12:30:00;;;;;;;13.85;12.40;;;23.90;73.70;;;;;;5000683;28;20083;-73
2021/06/28 12:32:27;;;;;;;13.32;11.90;;;24.10;72.70;;;;;;5006867;28;20091;-76
2021/06/28 12:34:58;;;;;;;13.73;12.05;;;24.40;72.70;;;;;;5008952;28;20113;-74